Time;durP1;ratioP1;P1;durP2;ratioP2;P2;SDS_P1;SDS_P2;PMS_P1;PMS_P2;Temp;Humidity;BMP_temperature;BMP_pressure;BME280_temperature;BME280_humidity;BME280_pressure;Samples;Min_cycle;Max_cycle;Signal;HPM_P1;HPM_P2
2021/12/08 00:02:10;;;;;;;3.83;2.97;;;3.20;99.70;;;;;;5036045;28;20676;-82
2021/12/08 00:04:37;;;;;;;2.92;2.70;;;3.20;99.60;;;;;;5042258;28;20211;-84
2021/12/08 00:07:05;;;;;;;3.50;2.67;;;3.30;99.40;;;;;;5041985;28;20219;-84
2021/12/08 00:09:47;;;;;;;3.15;2.83;;;3.30;99.40;;;;;;5041912;28;20222;-84
2021/12/08 00:14:59;;;;;;;4.72;2.88;;;3.40;99.50;;;;;;5042519;28;20251;-83
2021/12/08 00:17:27;;;;;;;3.78;3.40;;;3.40;99.60;;;;;;5043045;28;20238;-83
2021/12/08 00:19:54;;;;;;;3.75;2.83;;;3.40;99.70;;;;;;5042356;28;20217;-83
2021/12/08 00:22:21;;;;;;;3.78;2.15;;;3.50;99.70;;;;;;5041232;28;20221;-83
2021/12/08 00:24:48;;;;;;;5.47;3.15;;;3.60;99.90;;;;;;5042238;28;20240;-84
2021/12/08 00:27:15;;;;;;;2.67;2.47;;;3.60;99.70;;;;;;5024258;28;20226;-83
2021/12/08 00:29:41;;;;;;;4.90;3.65;;;3.60;99.80;;;;;;5022240;28;20557;-84
2021/12/08 00:32:09;;;;;;;3.92;2.30;;;3.60;99.90;;;;;;5022434;28;20216;-84
2021/12/08 00:34:38;;;;;;;5.10;4.28;;;3.60;99.90;;;;;;5022474;28;20282;-84
2021/12/08 00:37:05;;;;;;;4.55;4.22;;;3.60;99.90;;;;;;5036705;28;20252;-84
2021/12/08 00:39:32;;;;;;;3.10;2.60;;;3.60;99.90;;;;;;5042306;28;20235;-84
2021/12/08 00:41:59;;;;;;;6.20;5.15;;;3.60;99.90;;;;;;5028234;28;20211;-83
2021/12/08 00:44:26;;;;;;;4.47;2.92;;;3.60;99.90;;;;;;5022686;28;20643;-83
2021/12/08 00:46:52;;;;;;;3.63;2.05;;;3.60;99.90;;;;;;5022287;28;20223;-83
2021/12/08 00:49:19;;;;;;;3.25;2.30;;;3.60;99.90;;;;;;5022334;28;20212;-83
2021/12/08 00:51:47;;;;;;;3.00;2.55;;;3.50;99.90;;;;;;5022762;28;20215;-84
2021/12/08 00:54:14;;;;;;;3.05;2.85;;;3.40;99.90;;;;;;5021575;28;20215;-83
2021/12/08 00:56:41;;;;;;;2.75;2.55;;;3.30;99.90;;;;;;5022021;28;20227;-84
2021/12/08 00:59:07;;;;;;;3.38;2.47;;;3.30;99.90;;;;;;5022924;28;20296;-83
2021/12/08 01:01:34;;;;;;;8.23;4.15;;;3.20;99.90;;;;;;5031755;28;20208;-82
2021/12/08 01:04:01;;;;;;;4.00;2.10;;;3.10;99.90;;;;;;5034844;28;20495;-83
2021/12/08 01:06:28;;;;;;;8.75;2.58;;;3.10;99.90;;;;;;5030252;28;20251;-82
2021/12/08 01:08:56;;;;;;;4.00;1.90;;;3.00;99.90;;;;;;5030510;28;20213;-83
2021/12/08 01:11:23;;;;;;;3.17;2.28;;;3.00;99.90;;;;;;5035575;28;20201;-84
2021/12/08 01:13:51;;;;;;;2.28;2.15;;;3.00;99.90;;;;;;5050618;28;20202;-84
2021/12/08 01:16:19;;;;;;;2.42;2.33;;;2.90;99.90;;;;;;5050408;28;20220;-84
2021/12/08 01:18:46;;;;;;;2.60;2.40;;;3.00;99.90;;;;;;5042808;28;20231;-84
2021/12/08 01:21:14;;;;;;;1.92;1.83;;;2.90;99.90;;;;;;5031982;28;20215;-84
2021/12/08 01:23:42;;;;;;;2.22;1.83;;;3.00;99.90;;;;;;5021452;28;20208;-84
2021/12/08 01:26:11;;;;;;;2.10;1.90;;;2.90;99.90;;;;;;5021363;28;20598;-84
2021/12/08 01:28:38;;;;;;;3.03;1.98;;;2.80;99.90;;;;;;5021118;28;20222;-83
2021/12/08 01:31:05;;;;;;;3.15;2.05;;;2.80;99.90;;;;;;5028628;28;20205;-84
2021/12/08 01:33:35;;;;;;;2.50;2.30;;;2.80;99.90;;;;;;5041548;28;20221;-83
2021/12/08 01:36:04;;;;;;;2.05;1.88;;;2.90;99.90;;;;;;5037881;28;20279;-83
2021/12/08 01:38:31;;;;;;;2.92;2.28;;;2.90;99.90;;;;;;5021197;28;20210;-84
2021/12/08 01:40:58;;;;;;;2.60;2.08;;;2.80;99.90;;;;;;5020773;28;20211;-84
2021/12/08 01:43:28;;;;;;;1.80;1.70;;;2.80;99.90;;;;;;5023914;28;20207;-84
2021/12/08 01:46:01;;;;;;;2.33;2.17;;;2.70;99.90;;;;;;5041084;28;20223;-84
2021/12/08 01:48:30;;;;;;;2.50;2.30;;;2.70;99.90;;;;;;5036640;28;20192;-84
2021/12/08 01:51:00;;;;;;;3.92;2.53;;;2.70;99.90;;;;;;5020758;28;20207;-84
2021/12/08 01:53:27;;;;;;;2.13;2.03;;;2.70;99.90;;;;;;5024019;28;20200;-84
2021/12/08 01:55:54;;;;;;;3.72;2.35;;;2.70;99.90;;;;;;5040642;28;20231;-83
2021/12/08 01:58:21;;;;;;;3.38;2.15;;;2.70;99.90;;;;;;5038764;28;20206;-84
2021/12/08 02:00:53;;;;;;;5.97;2.30;;;2.70;99.90;;;;;;5021245;28;20207;-84
2021/12/08 02:03:21;;;;;;;3.83;2.55;;;2.70;99.90;;;;;;5021706;28;20215;-84
2021/12/08 02:05:49;;;;;;;2.55;2.00;;;2.70;99.90;;;;;;5045630;28;20460;-83
2021/12/08 02:08:16;;;;;;;2.45;2.35;;;2.80;99.90;;;;;;5047360;28;20210;-80
2021/12/08 02:10:43;;;;;;;2.33;2.13;;;2.80;99.90;;;;;;5044002;28;20214;-82
2021/12/08 02:13:10;;;;;;;2.42;2.33;;;2.80;99.90;;;;;;5041123;28;20254;-83
2021/12/08 02:15:38;;;;;;;2.92;2.10;;;2.90;99.90;;;;;;5022224;28;20235;-83
2021/12/08 02:18:11;;;;;;;2.65;2.40;;;2.90;99.90;;;;;;5021088;28;20235;-83
2021/12/08 02:20:39;;;;;;;3.15;2.55;;;2.90;99.90;;;;;;5020888;28;20224;-83
2021/12/08 02:23:08;;;;;;;3.28;3.03;;;2.90;99.90;;;;;;5042706;28;20680;-83
2021/12/08 02:25:35;;;;;;;3.17;2.95;;;3.00;99.90;;;;;;5051462;28;20207;-82
2021/12/08 02:28:05;;;;;;;3.38;2.90;;;3.00;99.90;;;;;;5052934;28;20207;-80
2021/12/08 02:30:37;;;;;;;2.92;2.30;;;3.00;99.90;;;;;;5049765;28;20206;-83
2021/12/08 02:47:05;;;;;;;2.58;2.05;;;3.10;99.90;;;;;;5033477;28;20347;-83
2021/12/08 02:49:32;;;;;;;5.15;4.18;;;3.10;99.90;;;;;;5019960;28;20209;-83
2021/12/08 02:52:01;;;;;;;4.32;2.75;;;3.10;99.90;;;;;;5026360;28;20207;-84
2021/12/08 02:54:34;;;;;;;3.58;2.80;;;3.10;99.90;;;;;;5040043;28;20201;-84
2021/12/08 02:57:01;;;;;;;3.30;2.85;;;3.20;99.90;;;;;;5033548;28;20235;-83
2021/12/08 02:59:27;;;;;;;3.63;2.60;;;3.20;99.90;;;;;;5032733;28;20207;-81
2021/12/08 03:01:54;;;;;;;3.47;2.90;;;3.20;99.90;;;;;;5056810;28;20207;-81
2021/12/08 03:04:21;;;;;;;3.50;3.00;;;3.20;99.90;;;;;;5055968;28;20199;-80
2021/12/08 03:06:48;;;;;;;3.70;3.40;;;3.20;99.90;;;;;;5035280;28;20227;-82
2021/12/08 03:09:15;;;;;;;3.40;3.20;;;3.20;99.90;;;;;;5021107;28;20213;-83
2021/12/08 03:11:43;;;;;;;4.38;3.97;;;3.20;99.90;;;;;;5042564;28;20217;-84
2021/12/08 03:14:12;;;;;;;4.15;3.85;;;3.20;99.90;;;;;;5040131;28;20222;-83
2021/12/08 03:16:41;;;;;;;3.40;3.15;;;3.20;99.90;;;;;;5020576;28;20231;-83
2021/12/08 03:19:08;;;;;;;3.00;2.80;;;3.10;99.90;;;;;;5018906;28;20208;-83
2021/12/08 03:21:35;;;;;;;4.10;2.67;;;3.10;99.90;;;;;;5037936;28;20207;-83
2021/12/08 03:24:15;;;;;;;2.70;2.50;;;3.10;99.90;;;;;;5040119;28;20211;-83
2021/12/08 03:26:52;;;;;;;6.65;2.95;;;3.10;99.90;;;;;;5040795;28;20239;-84
2021/12/08 03:29:28;;;;;;;3.25;2.95;;;3.20;99.90;;;;;;5041675;28;20227;-83
2021/12/08 03:32:04;;;;;;;5.32;2.70;;;3.20;99.90;;;;;;5021229;28;20744;-83
2021/12/08 03:34:32;;;;;;;4.05;3.08;;;3.30;99.90;;;;;;5021812;28;20212;-84
2021/12/08 03:36:59;;;;;;;3.28;2.85;;;3.40;99.90;;;;;;5022523;28;20236;-84
2021/12/08 03:39:26;;;;;;;3.85;2.60;;;3.50;99.90;;;;;;5022309;28;20211;-84
2021/12/08 03:41:54;;;;;;;4.57;3.40;;;3.50;99.90;;;;;;5020607;28;20205;-83
2021/12/08 03:44:21;;;;;;;7.03;3.83;;;3.50;99.90;;;;;;5020417;28;20228;-83
2021/12/08 03:46:49;;;;;;;5.78;4.07;;;3.50;99.90;;;;;;5022897;28;20711;-83
2021/12/08 03:49:18;;;;;;;4.03;3.03;;;3.40;99.90;;;;;;5020210;28;20209;-83
2021/12/08 03:51:45;;;;;;;3.55;3.25;;;3.40;99.90;;;;;;5019944;28;20678;-83
2021/12/08 03:54:13;;;;;;;4.63;2.97;;;3.40;99.90;;;;;;5020082;28;20206;-84
2021/12/08 03:56:40;;;;;;;3.10;2.85;;;3.30;99.90;;;;;;5027653;28;20227;-83
2021/12/08 03:59:08;;;;;;;3.75;3.45;;;3.30;99.90;;;;;;5020709;28;20214;-84
2021/12/08 04:01:35;;;;;;;11.75;4.72;;;3.30;99.90;;;;;;5021434;28;20214;-83
2021/12/08 04:04:07;;;;;;;3.80;3.20;;;3.30;99.90;;;;;;5019901;28;20213;-83
2021/12/08 04:06:41;;;;;;;7.35;3.67;;;3.30;99.90;;;;;;5019912;28;20225;-83
2021/12/08 04:09:16;;;;;;;3.30;3.08;;;3.40;99.90;;;;;;5019995;28;20217;-81
2021/12/08 04:11:44;;;;;;;3.63;3.33;;;3.30;99.90;;;;;;5040096;28;20231;-84
2021/12/08 04:14:15;;;;;;;5.28;3.45;;;3.30;99.90;;;;;;5038999;28;20219;-83
2021/12/08 04:16:47;;;;;;;4.60;4.20;;;3.30;99.90;;;;;;5000006;28;20229;-83
2021/12/08 04:19:14;;;;;;;6.15;3.45;;;3.30;99.90;;;;;;4999716;28;20223;-83
2021/12/08 04:21:42;;;;;;;4.85;4.00;;;3.30;99.90;;;;;;5000236;28;20210;-84
2021/12/08 04:24:10;;;;;;;3.88;3.47;;;3.30;99.90;;;;;;5013928;28;20679;-83
2021/12/08 04:26:40;;;;;;;4.15;3.85;;;3.30;99.90;;;;;;5039695;28;20231;-83
2021/12/08 04:29:09;;;;;;;5.35;3.15;;;3.40;99.90;;;;;;5039760;28;20206;-83
2021/12/08 04:31:39;;;;;;;4.40;3.83;;;3.40;99.90;;;;;;5042984;28;20209;-83
2021/12/08 04:34:12;;;;;;;8.35;4.30;;;3.40;99.90;;;;;;5042323;28;20585;-84
2021/12/08 04:36:44;;;;;;;4.38;3.97;;;3.40;99.90;;;;;;5031451;28;20223;-83
2021/12/08 04:39:17;;;;;;;5.82;3.63;;;3.40;99.90;;;;;;5023077;28;20219;-84
2021/12/08 04:41:50;;;;;;;8.70;5.03;;;3.40;99.90;;;;;;5024108;28;20737;-82
2021/12/08 04:44:26;;;;;;;4.30;3.83;;;3.40;99.90;;;;;;5024271;28;20273;-84
2021/12/08 04:47:15;;;;;;;4.88;4.47;;;3.40;99.90;;;;;;5024742;28;20311;-82
2021/12/08 04:50:16;;;;;;;6.72;4.03;;;3.50;99.90;;;;;;5023503;28;20232;-83
2021/12/08 04:52:51;;;;;;;5.53;4.95;;;3.50;99.90;;;;;;5024201;28;20643;-83
2021/12/08 05:04:02;;;;;;;6.13;4.95;;;3.70;99.90;;;;;;5033450;28;20201;-83
2021/12/08 05:06:40;;;;;;;5.80;4.88;;;3.70;99.90;;;;;;5042979;28;20221;-84
2021/12/08 05:09:11;;;;;;;4.03;3.72;;;3.80;99.90;;;;;;5044171;28;20226;-84
2021/12/08 05:11:43;;;;;;;4.80;4.40;;;3.80;99.90;;;;;;5015894;28;20207;-83
2021/12/08 05:14:15;;;;;;;6.60;4.88;;;3.90;99.90;;;;;;5041769;28;20194;-84
2021/12/08 05:16:45;;;;;;;8.43;5.47;;;3.90;99.90;;;;;;5044213;28;20232;-84
2021/12/08 05:19:17;;;;;;;5.95;5.43;;;3.90;99.90;;;;;;5026104;28;20198;-83
2021/12/08 05:21:48;;;;;;;5.53;4.63;;;4.00;99.90;;;;;;5023655;28;20210;-84
2021/12/08 05:24:17;;;;;;;4.90;4.50;;;4.00;99.90;;;;;;5025662;28;20210;-83
2021/12/08 05:26:49;;;;;;;5.88;5.15;;;4.10;99.90;;;;;;5024018;28;20239;-84
2021/12/08 05:29:19;;;;;;;5.05;4.55;;;4.20;99.90;;;;;;5041333;28;20222;-83
2021/12/08 05:31:47;;;;;;;7.55;5.25;;;4.30;99.90;;;;;;5043225;28;20667;-84
2021/12/08 05:34:16;;;;;;;7.10;5.15;;;4.30;99.90;;;;;;5043819;28;20209;-83
2021/12/08 05:36:43;;;;;;;6.15;4.70;;;4.30;99.90;;;;;;5064538;22;20226;-82
2021/12/08 05:39:14;;;;;;;6.88;5.85;;;4.30;99.90;;;;;;5039706;28;20689;-83
2021/12/08 05:41:43;;;;;;;5.88;5.38;;;4.30;99.90;;;;;;5043019;28;20220;-82
2021/12/08 05:44:11;;;;;;;7.38;5.63;;;4.30;99.90;;;;;;5046670;28;20205;-83
2021/12/08 05:46:42;;;;;;;6.72;5.97;;;4.10;99.90;;;;;;5039814;28;20715;-82
2021/12/08 05:49:11;;;;;;;7.80;7.00;;;4.10;99.90;;;;;;5039286;28;20398;-81
2021/12/08 05:51:41;;;;;;;6.70;5.38;;;4.10;99.90;;;;;;5022756;28;20207;-81
2021/12/08 05:54:16;;;;;;;6.20;5.60;;;4.10;99.90;;;;;;5019344;28;20197;-81
2021/12/08 05:56:44;;;;;;;7.38;6.65;;;4.00;99.90;;;;;;5019241;28;20252;-81
2021/12/08 05:59:13;;;;;;;8.20;7.28;;;4.10;99.90;;;;;;5019802;28;20212;-81
2021/12/08 06:01:45;;;;;;;8.63;6.43;;;4.10;99.90;;;;;;5018520;28;20214;-81
2021/12/08 06:04:12;;;;;;;8.75;5.82;;;4.10;99.90;;;;;;5019550;28;20661;-81
2021/12/08 06:06:42;;;;;;;9.65;7.05;;;4.10;99.90;;;;;;5020859;28;20231;-81
2021/12/08 06:09:11;;;;;;;9.70;6.30;;;4.20;99.90;;;;;;5019445;28;20198;-81
2021/12/08 06:11:39;;;;;;;7.32;6.07;;;4.20;99.90;;;;;;5019189;28;20196;-81
2021/12/08 06:14:07;;;;;;;11.77;6.90;;;4.30;99.90;;;;;;5018727;28;20207;-81
2021/12/08 06:16:36;;;;;;;8.95;6.10;;;4.30;99.90;;;;;;5020334;28;20231;-81
2021/12/08 06:19:03;;;;;;;7.60;6.35;;;4.40;99.90;;;;;;5018934;28;20210;-81
2021/12/08 06:21:31;;;;;;;10.35;5.40;;;4.50;99.90;;;;;;5019212;28;20669;-81
2021/12/08 06:24:01;;;;;;;8.20;6.47;;;4.50;99.90;;;;;;5037523;28;20202;-81
2021/12/08 06:26:28;;;;;;;6.93;6.25;;;4.50;99.90;;;;;;5038537;28;20604;-81
2021/12/08 06:28:57;;;;;;;5.78;5.35;;;4.60;99.90;;;;;;5038581;28;20213;-81
2021/12/08 06:31:26;;;;;;;6.15;5.63;;;4.50;99.90;;;;;;5037919;28;20209;-81
2021/12/08 06:33:54;;;;;;;6.57;5.93;;;4.50;99.90;;;;;;5039858;28;20217;-81
2021/12/08 06:36:25;;;;;;;6.88;6.07;;;4.50;99.90;;;;;;5033104;28;20244;-81
2021/12/08 06:38:53;;;;;;;7.95;6.60;;;4.40;99.90;;;;;;5021853;28;20245;-81
2021/12/08 06:41:25;;;;;;;10.82;5.85;;;4.40;99.90;;;;;;5028079;28;20206;-81
2021/12/08 06:43:55;;;;;;;8.48;6.03;;;4.40;99.90;;;;;;5036529;28;20211;-80
2021/12/08 06:46:23;;;;;;;8.30;6.25;;;4.40;99.90;;;;;;5034809;28;20230;-80
2021/12/08 06:48:53;;;;;;;7.43;6.20;;;4.40;99.90;;;;;;5034532;28;20672;-80
2021/12/08 06:51:23;;;;;;;9.57;5.72;;;4.40;99.90;;;;;;5031760;28;20574;-82
2021/12/08 06:53:54;;;;;;;8.20;5.82;;;4.40;99.90;;;;;;5017854;28;20700;-82
2021/12/08 06:56:27;;;;;;;6.28;5.78;;;4.40;99.90;;;;;;5023820;28;20231;-82
2021/12/08 06:58:58;;;;;;;10.52;6.90;;;4.40;99.90;;;;;;5038293;28;20230;-82
2021/12/08 07:01:39;;;;;;;6.68;5.97;;;4.50;99.90;;;;;;5031800;28;20806;-82
2021/12/08 07:04:25;;;;;;;9.40;5.43;;;4.50;99.90;;;;;;5016816;28;20191;-83
2021/12/08 07:07:00;;;;;;;9.32;7.53;;;4.40;99.90;;;;;;5016637;28;20241;-82
2021/12/08 07:09:30;;;;;;;7.25;6.45;;;4.40;99.90;;;;;;5017520;28;20258;-82
2021/12/08 07:12:01;;;;;;;11.05;8.18;;;4.30;99.90;;;;;;5033986;28;20209;-82
2021/12/08 07:14:32;;;;;;;8.68;7.78;;;4.50;99.90;;;;;;5036191;28;20208;-82
2021/12/08 07:17:02;;;;;;;9.20;8.25;;;4.50;99.90;;;;;;5036737;28;20237;-81
2021/12/08 07:19:39;;;;;;;8.75;7.65;;;4.50;99.90;;;;;;5018311;28;20654;-82
2021/12/08 07:22:08;;;;;;;14.05;8.10;;;4.50;99.90;;;;;;5017641;28;20293;-82
2021/12/08 07:24:38;;;;;;;13.52;8.93;;;4.50;99.90;;;;;;5017509;28;20214;-82
2021/12/08 07:27:10;;;;;;;11.05;6.88;;;4.60;99.90;;;;;;5017069;28;20234;-83
2021/12/08 07:29:40;;;;;;;9.38;7.68;;;4.60;99.90;;;;;;5018067;28;20194;-83
2021/12/08 07:32:10;;;;;;;8.90;8.00;;;4.70;99.90;;;;;;5034676;28;20676;-81
2021/12/08 07:34:38;;;;;;;13.85;7.10;;;4.70;99.90;;;;;;5034052;28;20199;-81
2021/12/08 07:37:11;;;;;;;9.23;7.60;;;4.80;99.90;;;;;;5034100;28;20237;-81
2021/12/08 07:39:44;;;;;;;13.52;8.50;;;4.80;99.90;;;;;;5034170;28;20224;-81
2021/12/08 07:42:17;;;;;;;9.63;8.15;;;4.90;99.90;;;;;;5032801;28;20538;-81
2021/12/08 07:44:45;;;;;;;8.25;7.45;;;5.00;99.90;;;;;;5034584;28;20217;-81
2021/12/08 07:47:15;;;;;;;13.18;9.43;;;5.00;99.90;;;;;;5035192;28;20226;-81
2021/12/08 07:49:46;;;;;;;9.15;8.25;;;5.00;99.90;;;;;;5032182;28;20233;-81
2021/12/08 07:52:16;;;;;;;10.05;8.45;;;5.00;99.90;;;;;;5034295;28;20671;-81
2021/12/08 07:54:45;;;;;;;9.18;8.38;;;4.90;99.90;;;;;;5032163;28;20285;-80
2021/12/08 07:57:18;;;;;;;9.75;7.70;;;4.90;99.90;;;;;;5033105;28;20224;-80
2021/12/08 07:59:48;;;;;;;8.10;6.88;;;4.80;99.90;;;;;;5024321;28;20197;-80
2021/12/08 08:02:14;;;;;;;7.95;7.20;;;4.80;99.90;;;;;;5036515;28;20203;-82
2021/12/08 08:04:44;;;;;;;7.03;6.32;;;4.90;99.90;;;;;;5037657;28;20663;-81
2021/12/08 08:07:13;;;;;;;9.35;5.88;;;4.90;99.90;;;;;;5040498;28;20233;-82
2021/12/08 08:09:43;;;;;;;7.43;6.80;;;4.90;99.90;;;;;;5038453;28;20194;-79
2021/12/08 08:12:17;;;;;;;8.45;7.07;;;5.00;99.90;;;;;;5032524;28;20290;-79
2021/12/08 08:14:51;;;;;;;9.07;8.18;;;5.10;99.90;;;;;;5017011;28;20213;-78
2021/12/08 08:17:31;;;;;;;8.65;7.18;;;5.10;99.90;;;;;;5024210;28;20246;-78
2021/12/08 08:19:59;;;;;;;9.82;6.38;;;5.20;99.90;;;;;;5038505;28;20273;-79
2021/12/08 08:22:29;;;;;;;7.25;6.65;;;5.20;99.90;;;;;;5025411;28;20202;-79
2021/12/08 08:24:59;;;;;;;8.90;8.15;;;5.30;99.90;;;;;;5018912;28;20205;-80
2021/12/08 08:27:28;;;;;;;10.80;7.93;;;5.30;99.90;;;;;;5031171;28;20233;-79
2021/12/08 08:29:57;;;;;;;8.75;7.75;;;5.30;99.90;;;;;;5038642;28;20667;-80
2021/12/08 08:32:30;;;;;;;9.35;8.55;;;5.30;99.90;;;;;;5037947;28;20206;-79
2021/12/08 08:35:00;;;;;;;7.22;6.53;;;5.20;99.90;;;;;;5038523;28;20702;-79
2021/12/08 08:37:27;;;;;;;8.35;6.60;;;5.10;99.90;;;;;;5038414;28;20242;-79
2021/12/08 08:39:59;;;;;;;12.70;6.63;;;5.10;99.90;;;;;;5036391;28;20206;-78
2021/12/08 08:42:30;;;;;;;9.07;6.68;;;5.10;99.90;;;;;;5034652;28;20248;-77
2021/12/08 08:45:01;;;;;;;6.85;5.35;;;5.20;99.90;;;;;;5034818;28;20218;-77
2021/12/08 08:47:32;;;;;;;6.13;5.47;;;5.20;99.90;;;;;;5034709;28;20226;-77
2021/12/08 08:49:59;;;;;;;5.75;5.25;;;5.20;99.90;;;;;;5034666;28;20686;-77
2021/12/08 08:52:30;;;;;;;6.53;5.72;;;5.20;99.90;;;;;;5034346;28;20230;-77
2021/12/08 08:55:00;;;;;;;6.95;5.05;;;5.20;99.90;;;;;;5034641;28;20293;-77
2021/12/08 08:57:33;;;;;;;7.95;6.28;;;5.30;99.90;;;;;;5034448;28;20716;-77
2021/12/08 09:00:11;;;;;;;8.90;6.50;;;5.30;99.90;;;;;;5034496;28;20210;-77
2021/12/08 09:02:39;;;;;;;7.40;5.70;;;5.20;99.90;;;;;;5034972;28;20206;-77
2021/12/08 09:05:11;;;;;;;5.97;5.57;;;5.20;99.90;;;;;;5036365;28;20301;-78
2021/12/08 09:07:42;;;;;;;7.93;6.20;;;5.10;99.90;;;;;;5040124;28;20313;-79
2021/12/08 09:10:13;;;;;;;6.10;5.38;;;4.90;99.90;;;;;;5038157;28;20214;-79
2021/12/08 09:12:44;;;;;;;5.85;5.35;;;5.00;99.90;;;;;;5040458;28;20223;-79
2021/12/08 09:15:15;;;;;;;5.53;5.03;;;5.00;99.90;;;;;;5045811;28;20220;-79
2021/12/08 09:17:45;;;;;;;6.15;5.55;;;4.80;99.90;;;;;;5043882;28;20234;-79
2021/12/08 09:20:20;;;;;;;7.07;6.30;;;4.70;99.90;;;;;;5043803;28;20210;-79
2021/12/08 09:22:55;;;;;;;7.93;6.10;;;4.70;99.90;;;;;;5039344;28;20712;-79
2021/12/08 09:25:29;;;;;;;6.80;5.80;;;4.70;99.90;;;;;;5049964;28;20217;-79
2021/12/08 09:28:02;;;;;;;6.65;5.38;;;4.70;99.90;;;;;;5050303;28;20209;-79
2021/12/08 09:30:37;;;;;;;5.95;5.45;;;4.70;99.90;;;;;;5042434;28;20214;-80
2021/12/08 09:33:09;;;;;;;8.00;6.28;;;4.70;99.90;;;;;;5038678;28;20205;-78
2021/12/08 09:35:45;;;;;;;7.32;6.05;;;4.70;99.90;;;;;;5038436;28;20214;-79
2021/12/08 09:38:16;;;;;;;8.00;7.25;;;4.70;99.90;;;;;;5038822;28;20233;-79
2021/12/08 09:40:48;;;;;;;6.20;5.43;;;4.70;99.90;;;;;;5038478;28;20222;-79
2021/12/08 09:43:20;;;;;;;7.45;6.80;;;4.80;99.90;;;;;;5037580;28;20206;-78
2021/12/08 09:45:50;;;;;;;7.78;7.00;;;4.90;99.90;;;;;;5033615;28;20213;-78
2021/12/08 09:48:18;;;;;;;5.80;5.28;;;5.00;99.90;;;;;;5037289;28;20202;-79
2021/12/08 09:50:46;;;;;;;6.32;5.90;;;5.00;99.90;;;;;;5034616;28;20210;-79
2021/12/08 09:53:14;;;;;;;6.20;5.60;;;5.10;99.90;;;;;;5035948;28;20633;-79
2021/12/08 09:55:41;;;;;;;6.45;5.85;;;5.10;99.90;;;;;;5038061;28;20210;-79
2021/12/08 09:58:08;;;;;;;7.28;5.95;;;5.20;99.90;;;;;;5037737;28;20222;-78
2021/12/08 10:00:40;;;;;;;5.93;5.35;;;5.10;99.90;;;;;;5037321;28;20210;-79
2021/12/08 10:03:08;;;;;;;7.30;5.75;;;5.20;99.90;;;;;;5038020;28;20777;-79
2021/12/08 10:05:37;;;;;;;5.72;5.10;;;5.20;99.90;;;;;;5038503;28;20233;-79
2021/12/08 10:08:05;;;;;;;7.50;5.25;;;5.10;99.90;;;;;;5038470;28;20586;-79
2021/12/08 10:10:33;;;;;;;6.38;5.78;;;5.20;99.90;;;;;;5037427;28;20206;-79
2021/12/08 10:13:00;;;;;;;6.55;5.68;;;5.30;99.90;;;;;;5038137;28;20667;-79
2021/12/08 10:15:27;;;;;;;6.13;5.53;;;5.40;99.90;;;;;;5037611;28;20206;-79
2021/12/08 10:17:56;;;;;;;5.07;4.57;;;5.40;99.90;;;;;;5037235;28;20586;-79
2021/12/08 10:20:28;;;;;;;5.13;4.68;;;5.50;99.90;;;;;;5039376;28;20310;-79
2021/12/08 10:23:28;;;;;;;5.60;4.72;;;5.50;99.90;;;;;;5039588;28;20209;-78
2021/12/08 10:25:58;;;;;;;5.80;5.30;;;5.40;99.90;;;;;;4957253;29;20229;-79
2021/12/08 10:28:29;;;;;;;4.80;4.40;;;5.30;99.90;;;;;;5023302;28;20213;-78
2021/12/08 10:31:02;;;;;;;6.00;5.05;;;5.20;99.90;;;;;;5037298;28;20212;-79
2021/12/08 10:33:48;;;;;;;5.45;5.05;;;5.20;99.90;;;;;;5038212;28;20214;-77
2021/12/08 10:36:34;;;;;;;5.97;5.38;;;5.20;99.90;;;;;;5038828;28;20325;-79
2021/12/08 10:39:04;;;;;;;5.45;4.95;;;5.40;99.90;;;;;;5039190;28;20234;-79
2021/12/08 10:41:48;;;;;;;4.97;4.47;;;5.40;99.90;;;;;;5038425;28;20614;-79
2021/12/08 10:44:16;;;;;;;4.05;3.75;;;5.50;99.90;;;;;;5037561;28;20260;-78
2021/12/08 10:46:43;;;;;;;4.60;4.30;;;5.40;99.90;;;;;;5038225;28;20742;-78
2021/12/08 10:49:20;;;;;;;4.82;4.43;;;5.40;99.90;;;;;;5037675;28;20212;-79
2021/12/08 10:54:36;;;;;;;4.90;4.50;;;5.50;99.90;;;;;;5037404;28;20212;-79
2021/12/08 10:57:30;;;;;;;5.53;4.90;;;5.40;99.90;;;;;;5037277;28;20222;-78
2021/12/08 11:00:02;;;;;;;5.07;4.65;;;5.50;99.90;;;;;;5036943;28;20248;-78
2021/12/08 11:02:52;;;;;;;5.55;5.15;;;5.60;99.90;;;;;;5036774;28;20212;-79
2021/12/08 11:05:44;;;;;;;4.70;4.40;;;5.80;99.90;;;;;;5036783;28;20210;-78
2021/12/08 11:08:20;;;;;;;4.85;4.40;;;6.00;99.90;;;;;;5034361;28;20241;-79
2021/12/08 11:10:51;;;;;;;4.43;4.10;;;6.00;99.90;;;;;;5032172;28;20500;-79
2021/12/08 11:13:26;;;;;;;5.30;4.72;;;6.10;99.90;;;;;;5032851;28;20205;-79
2021/12/08 11:16:10;;;;;;;4.97;4.35;;;6.20;99.90;;;;;;5032359;28;20244;-79
2021/12/08 11:18:40;;;;;;;5.70;5.25;;;6.30;99.90;;;;;;5032107;28;20706;-79
2021/12/08 11:21:15;;;;;;;3.53;3.22;;;6.40;99.90;;;;;;5031975;28;20202;-79
2021/12/08 11:23:45;;;;;;;6.03;4.90;;;6.40;99.90;;;;;;5032520;28;20597;-79
2021/12/08 11:26:20;;;;;;;3.38;3.08;;;6.50;99.90;;;;;;5032121;28;20727;-79
2021/12/08 11:28:53;;;;;;;4.63;4.32;;;6.60;99.90;;;;;;5031884;28;20227;-79
2021/12/08 11:31:25;;;;;;;4.78;3.75;;;6.60;99.90;;;;;;5032181;28;20190;-79
2021/12/08 11:34:00;;;;;;;3.83;3.47;;;6.50;99.90;;;;;;5032184;28;20214;-79
2021/12/08 11:36:30;;;;;;;4.97;4.47;;;6.50;99.90;;;;;;5056970;22;20257;-79
2021/12/08 11:38:58;;;;;;;5.22;3.30;;;6.50;99.90;;;;;;5036463;28;20276;-80
2021/12/08 11:41:34;;;;;;;3.60;3.30;;;6.40;99.90;;;;;;5039676;28;20202;-79
2021/12/08 11:44:03;;;;;;;3.47;3.28;;;6.40;99.90;;;;;;5039707;28;20560;-79
2021/12/08 11:46:35;;;;;;;2.97;2.78;;;6.40;99.90;;;;;;5039963;28;20229;-80
2021/12/08 11:49:08;;;;;;;4.03;3.72;;;6.40;99.90;;;;;;5040001;28;20209;-80
2021/12/08 11:51:52;;;;;;;3.60;3.40;;;6.40;99.90;;;;;;5039184;28;20206;-79
2021/12/08 11:54:34;;;;;;;4.20;3.90;;;6.30;99.90;;;;;;5039970;28;20229;-79
2021/12/08 11:57:08;;;;;;;3.95;3.58;;;6.40;99.90;;;;;;5039409;28;20234;-80
2021/12/08 11:59:44;;;;;;;3.38;3.08;;;6.10;99.90;;;;;;5039660;28;20229;-79
2021/12/08 12:02:13;;;;;;;4.50;3.38;;;6.00;99.90;;;;;;5039592;28;20210;-80
2021/12/08 12:04:40;;;;;;;4.10;3.80;;;6.00;99.90;;;;;;5039492;28;20301;-79
2021/12/08 12:07:09;;;;;;;4.28;2.97;;;6.10;99.90;;;;;;5039029;28;20226;-79
2021/12/08 12:09:36;;;;;;;3.42;3.22;;;6.10;99.90;;;;;;5039754;28;20210;-80
2021/12/08 12:12:04;;;;;;;3.22;3.03;;;6.20;99.90;;;;;;5039340;28;20206;-80
2021/12/08 12:14:31;;;;;;;4.82;4.63;;;6.30;99.90;;;;;;5039424;28;20602;-79
2021/12/08 12:16:58;;;;;;;5.82;3.58;;;6.20;99.90;;;;;;5038934;28;20337;-79
2021/12/08 12:19:29;;;;;;;4.28;3.97;;;6.20;99.90;;;;;;5039169;28;20242;-79
2021/12/08 12:22:02;;;;;;;3.90;3.60;;;6.20;99.90;;;;;;5038706;28;20220;-79
2021/12/08 12:24:51;;;;;;;4.38;3.97;;;6.30;99.90;;;;;;5038976;28;20217;-80
2021/12/08 12:27:36;;;;;;;4.00;3.80;;;6.30;99.90;;;;;;5038875;28;20711;-79
2021/12/08 12:30:12;;;;;;;5.53;5.13;;;6.50;99.90;;;;;;5039621;28;20202;-79
2021/12/08 12:32:45;;;;;;;5.50;4.22;;;6.40;99.90;;;;;;5038997;28;20726;-79
2021/12/08 12:35:16;;;;;;;5.18;4.78;;;6.20;99.90;;;;;;5039063;28;20214;-79
2021/12/08 12:37:43;;;;;;;8.25;5.50;;;5.90;99.90;;;;;;5038279;28;20238;-80
2021/12/08 12:40:15;;;;;;;5.97;5.03;;;5.60;99.90;;;;;;5038610;28;20270;-80
2021/12/08 12:42:51;;;;;;;8.98;5.25;;;5.50;99.90;;;;;;5038723;28;20212;-79
2021/12/08 12:45:19;;;;;;;6.90;6.30;;;5.40;99.90;;;;;;5039255;28;20205;-80
2021/12/08 12:48:21;;;;;;;5.72;5.18;;;5.20;99.90;;;;;;5038607;28;20234;-79
2021/12/08 12:50:58;;;;;;;7.47;6.00;;;5.10;99.90;;;;;;5033406;28;20272;-79
2021/12/08 12:53:45;;;;;;;7.05;6.35;;;5.00;99.90;;;;;;5038616;28;20202;-79
2021/12/08 12:56:16;;;;;;;7.53;6.80;;;4.90;99.90;;;;;;5038567;28;20317;-79
2021/12/08 12:58:49;;;;;;;7.47;6.75;;;4.90;99.90;;;;;;5038291;28;20222;-79
2021/12/08 13:01:18;;;;;;;8.27;6.65;;;4.80;99.90;;;;;;5037601;28;20213;-79
2021/12/08 13:03:51;;;;;;;6.43;5.78;;;4.80;99.90;;;;;;5038475;28;20216;-79
2021/12/08 13:06:41;;;;;;;7.55;6.60;;;4.80;99.90;;;;;;5037458;28;20226;-79
2021/12/08 13:09:10;;;;;;;7.43;6.80;;;4.80;99.90;;;;;;5038052;28;20206;-79
2021/12/08 13:11:57;;;;;;;7.90;7.10;;;4.80;99.90;;;;;;5037464;28;20202;-79
2021/12/08 13:14:27;;;;;;;9.43;8.48;;;4.90;99.90;;;;;;5037923;28;20210;-79
2021/12/08 13:17:14;;;;;;;8.93;7.95;;;5.00;99.90;;;;;;5037898;28;20230;-79
2021/12/08 13:19:44;;;;;;;13.85;7.53;;;5.10;99.90;;;;;;5037791;28;20234;-79
2021/12/08 13:22:50;;;;;;;12.48;8.40;;;5.10;99.90;;;;;;5037455;28;20568;-79
2021/12/08 13:25:30;;;;;;;11.70;9.45;;;5.10;99.90;;;;;;5037885;28;20270;-80
2021/12/08 13:28:10;;;;;;;9.98;8.93;;;5.10;99.90;;;;;;5037502;28;20288;-79
2021/12/08 13:30:48;;;;;;;9.98;8.98;;;5.10;99.90;;;;;;5037633;28;20261;-79
2021/12/08 13:33:34;;;;;;;9.18;8.18;;;5.10;99.90;;;;;;5037507;28;20215;-79
2021/12/08 13:36:28;;;;;;;9.02;8.13;;;5.30;99.90;;;;;;5037600;28;20205;-79
2021/12/08 13:39:13;;;;;;;8.93;8.00;;;5.60;99.90;;;;;;5037152;28;20218;-79
2021/12/08 13:41:41;;;;;;;9.10;8.20;;;5.80;99.90;;;;;;5036823;28;20217;-79
2021/12/08 13:44:25;;;;;;;9.32;7.47;;;6.00;99.90;;;;;;5037830;28;20218;-79
2021/12/08 13:46:54;;;;;;;9.25;6.60;;;6.10;99.90;;;;;;5039889;28;20227;-79